Flight Briefing for CPX427

Departure Arrival
El Paso International Airport (KELP)
Click to view FAA NOTAMS
Tulsa International Airport (KTUL)
Click to view FAA NOTAMS
Departure Time Arrival Time
N/A N/A
Aircraft Distance
B757-200SF 585nm
Departure METAR Arrival METAR
KELP 252251Z 16006KT 10SM SCT250 26/M11 A3013 RMK AO2 SLP148 T02611111 KTUL 252253Z 02008KT 10SM OVC037 14/07 A3027 RMK AO2 SLP250 T01390072
Suggested Route
TDOWN3 TDOWN SFL HOMET SPS IRW


View recent IFR Routes data
Notes



Charts and Procedures

Charts for KELP
No chart available
Charts for KTUL
No chart available

Windy.com Weather Map